Time;durP1;ratioP1;P1;durP2;ratioP2;P2;SDS_P1;SDS_P2;PMS_P1;PMS_P2;Temp;Humidity;BMP_temperature;BMP_pressure;BME280_temperature;BME280_humidity;BME280_pressure;Samples;Min_cycle;Max_cycle;Signal;HPM_P1;HPM_P2
2020/12/26 00:02:16;;;;;;;5.37;4.50;;;4.80;64.70;;;;;;6188964;23;20005;-82
2020/12/26 00:04:42;;;;;;;6.03;4.80;;;4.80;64.50;;;;;;6188027;23;20027;-82
2020/12/26 00:07:08;;;;;;;5.87;4.87;;;4.80;64.30;;;;;;6188526;23;20005;-83
2020/12/26 00:09:33;;;;;;;6.07;5.30;;;4.80;64.20;;;;;;6187576;23;20009;-82
2020/12/26 00:11:59;;;;;;;5.87;5.13;;;4.80;64.30;;;;;;6188658;23;20009;-82
2020/12/26 00:14:28;;;;;;;5.93;4.80;;;4.70;64.20;;;;;;6215775;23;20721;-82
2020/12/26 00:16:55;;;;;;;6.43;5.23;;;4.70;64.30;;;;;;6189235;23;20452;-82
2020/12/26 00:19:21;;;;;;;7.30;5.17;;;4.70;64.20;;;;;;6186998;23;20011;-82
2020/12/26 00:21:47;;;;;;;7.00;5.33;;;4.80;64.80;;;;;;6188416;23;20005;-82
2020/12/26 00:24:12;;;;;;;6.40;5.43;;;4.70;64.00;;;;;;6214941;23;20088;-82
2020/12/26 00:26:38;;;;;;;7.30;5.77;;;4.70;64.10;;;;;;6188747;23;20012;-82
2020/12/26 00:29:04;;;;;;;7.77;6.07;;;4.70;64.10;;;;;;6215093;23;20016;-82
2020/12/26 00:31:29;;;;;;;6.93;5.57;;;4.70;63.90;;;;;;6188710;23;20662;-82
2020/12/26 00:33:55;;;;;;;8.33;6.17;;;4.60;63.80;;;;;;6188401;23;20000;-82
2020/12/26 00:36:21;;;;;;;7.10;5.20;;;4.60;64.20;;;;;;6189324;23;20009;-82
2020/12/26 00:38:46;;;;;;;8.27;6.40;;;4.60;64.20;;;;;;6188753;23;20015;-83
2020/12/26 00:41:13;;;;;;;7.27;6.03;;;4.60;64.20;;;;;;6187236;23;20036;-83
2020/12/26 00:43:39;;;;;;;8.63;6.03;;;4.60;64.00;;;;;;6215465;23;20031;-83
2020/12/26 00:46:04;;;;;;;7.20;5.40;;;4.60;63.90;;;;;;6214306;23;20008;-82
2020/12/26 00:48:30;;;;;;;6.37;5.60;;;4.70;63.90;;;;;;6188726;23;20347;-83
2020/12/26 00:50:56;;;;;;;8.20;6.47;;;4.70;63.80;;;;;;6188725;23;20023;-83
2020/12/26 00:53:21;;;;;;;7.20;5.77;;;4.70;63.70;;;;;;6189988;23;20005;-83
2020/12/26 00:55:47;;;;;;;7.23;5.57;;;4.70;63.70;;;;;;6215407;23;20300;-82
2020/12/26 00:58:13;;;;;;;7.80;5.57;;;4.70;63.90;;;;;;6187688;23;20518;-82
2020/12/26 01:00:39;;;;;;;6.57;4.97;;;4.70;63.90;;;;;;6187171;23;20367;-82
2020/12/26 01:03:05;;;;;;;8.10;5.53;;;4.70;64.00;;;;;;6187644;23;20015;-82
2020/12/26 01:05:30;;;;;;;7.40;5.50;;;4.70;63.80;;;;;;6214745;23;19997;-82
2020/12/26 01:07:56;;;;;;;9.07;5.93;;;4.70;63.90;;;;;;6187636;23;20009;-81
2020/12/26 01:10:22;;;;;;;7.40;5.53;;;4.70;63.60;;;;;;6187149;23;20088;-82
2020/12/26 01:12:49;;;;;;;7.60;5.83;;;4.70;63.60;;;;;;6188336;23;20007;-82
2020/12/26 01:15:15;;;;;;;9.67;6.20;;;4.70;63.80;;;;;;6188999;23;20004;-82
2020/12/26 01:17:41;;;;;;;9.53;7.23;;;4.60;63.40;;;;;;6188603;23;20524;-82
2020/12/26 01:20:07;;;;;;;7.67;5.93;;;4.60;63.80;;;;;;6187428;23;20007;-82
2020/12/26 01:22:34;;;;;;;7.07;5.80;;;4.50;63.50;;;;;;6188159;23;20070;-82
2020/12/26 01:25:07;;;;;;;9.50;6.57;;;4.50;63.60;;;;;;6187421;23;20012;-82
2020/12/26 01:27:33;;;;;;;11.15;5.93;;;4.50;63.80;;;;;;6188388;23;20031;-82
2020/12/26 01:29:59;;;;;;;9.37;6.27;;;4.50;63.80;;;;;;6215460;23;20000;-82
2020/12/26 01:32:27;;;;;;;7.87;5.93;;;4.50;63.80;;;;;;6188743;23;20015;-82
2020/12/26 01:34:57;;;;;;;7.47;5.37;;;4.50;63.70;;;;;;6187529;23;20001;-82
2020/12/26 01:37:23;;;;;;;7.57;5.93;;;4.50;63.80;;;;;;6189207;23;20008;-82
2020/12/26 01:39:49;;;;;;;8.87;7.10;;;4.60;63.60;;;;;;6188615;23;20004;-82
2020/12/26 01:42:15;;;;;;;8.07;6.50;;;4.50;63.60;;;;;;6188807;23;20776;-83
2020/12/26 01:44:41;;;;;;;8.37;6.17;;;4.50;63.80;;;;;;6188582;23;20015;-83
2020/12/26 01:47:07;;;;;;;9.00;6.63;;;4.70;64.10;;;;;;6189210;23;20017;-82
2020/12/26 01:49:33;;;;;;;9.13;6.43;;;4.70;63.50;;;;;;6188120;23;20024;-82
2020/12/26 01:52:00;;;;;;;10.00;6.70;;;4.70;63.60;;;;;;6186604;23;20063;-82
2020/12/26 01:54:27;;;;;;;8.50;5.33;;;4.70;63.80;;;;;;6187695;23;20020;-82
2020/12/26 01:56:53;;;;;;;9.50;5.77;;;4.60;63.80;;;;;;6188299;23;20050;-82
2020/12/26 01:59:18;;;;;;;8.57;6.17;;;4.60;64.00;;;;;;6215844;23;20408;-82
2020/12/26 02:01:44;;;;;;;7.57;5.67;;;4.60;64.00;;;;;;6187629;23;20015;-82
2020/12/26 02:04:11;;;;;;;8.20;5.90;;;4.70;64.10;;;;;;6214900;23;20005;-82
2020/12/26 02:06:47;;;;;;;9.30;6.83;;;4.70;63.80;;;;;;6188232;23;20009;-82
2020/12/26 02:09:14;;;;;;;7.97;5.90;;;4.70;63.90;;;;;;6187170;23;20008;-83
2020/12/26 02:11:40;;;;;;;8.27;6.20;;;4.70;63.90;;;;;;6212433;23;20008;-83
2020/12/26 02:14:05;;;;;;;7.57;5.67;;;4.70;63.80;;;;;;6186688;23;20012;-83
2020/12/26 02:16:51;;;;;;;8.33;5.93;;;4.60;63.60;;;;;;6187872;23;20336;-83
2020/12/26 02:19:23;;;;;;;11.17;5.80;;;4.60;64.00;;;;;;6187340;23;20004;-83
2020/12/26 02:21:49;;;;;;;7.97;6.00;;;4.60;63.70;;;;;;6187974;23;20395;-83
2020/12/26 02:24:15;;;;;;;8.43;6.53;;;4.60;63.80;;;;;;6215230;23;20001;-83
2020/12/26 02:26:41;;;;;;;8.67;6.60;;;4.50;63.70;;;;;;6188877;23;20004;-83
2020/12/26 02:29:07;;;;;;;10.07;6.50;;;4.50;63.90;;;;;;6214025;23;20024;-83
2020/12/26 02:31:34;;;;;;;8.03;5.83;;;4.60;64.10;;;;;;6213805;23;20008;-84
2020/12/26 02:34:01;;;;;;;10.60;5.90;;;4.60;64.10;;;;;;6188794;23;20108;-84
2020/12/26 02:36:26;;;;;;;9.20;6.47;;;4.60;64.00;;;;;;6188013;23;20024;-83
2020/12/26 02:38:52;;;;;;;8.77;6.20;;;4.50;63.90;;;;;;6187523;23;20426;-83
2020/12/26 02:41:18;;;;;;;8.03;5.60;;;4.50;64.10;;;;;;6187903;23;20012;-83
2020/12/26 02:43:43;;;;;;;7.97;5.57;;;4.50;63.90;;;;;;6188634;23;20013;-82
2020/12/26 02:46:09;;;;;;;7.43;5.40;;;4.50;64.00;;;;;;6188737;23;20008;-83
2020/12/26 02:48:35;;;;;;;7.53;5.33;;;4.40;64.50;;;;;;6188428;23;20031;-83
2020/12/26 02:51:01;;;;;;;7.30;5.13;;;4.40;63.80;;;;;;6187827;23;20008;-83
2020/12/26 02:53:27;;;;;;;7.37;5.30;;;4.50;63.80;;;;;;6187211;23;20440;-83
2020/12/26 02:55:53;;;;;;;9.63;5.90;;;4.50;63.90;;;;;;6212528;23;20091;-83
2020/12/26 02:58:19;;;;;;;8.37;5.67;;;4.40;63.80;;;;;;6187907;23;19997;-83
2020/12/26 03:00:45;;;;;;;8.27;5.10;;;4.40;63.90;;;;;;6188170;23;20285;-83
2020/12/26 03:03:11;;;;;;;11.73;5.97;;;4.40;63.80;;;;;;6188681;23;20066;-83
2020/12/26 03:05:37;;;;;;;7.40;5.47;;;4.40;64.00;;;;;;6188251;23;20036;-83
2020/12/26 03:08:03;;;;;;;8.93;6.10;;;4.40;64.10;;;;;;6190281;23;20004;-83
2020/12/26 03:10:28;;;;;;;8.87;5.23;;;4.40;64.00;;;;;;6189706;23;20008;-83
2020/12/26 03:12:54;;;;;;;7.63;5.27;;;4.50;64.50;;;;;;6190270;23;20047;-82
2020/12/26 03:15:21;;;;;;;7.80;5.17;;;4.50;64.30;;;;;;6188530;23;20005;-82
2020/12/26 03:17:47;;;;;;;7.27;5.30;;;4.60;64.10;;;;;;6217263;23;20008;-82
2020/12/26 03:20:13;;;;;;;5.47;4.67;;;4.50;64.20;;;;;;6190531;23;20072;-82
2020/12/26 03:22:39;;;;;;;7.30;4.97;;;4.50;64.10;;;;;;6189659;23;20061;-82
2020/12/26 03:25:04;;;;;;;7.47;5.47;;;4.50;64.10;;;;;;6188412;23;20016;-83
2020/12/26 03:27:30;;;;;;;6.13;5.00;;;4.50;64.20;;;;;;6216027;23;20024;-83
2020/12/26 03:29:56;;;;;;;7.80;5.03;;;4.60;64.20;;;;;;6189287;23;20095;-83
2020/12/26 03:32:22;;;;;;;6.93;4.60;;;4.50;64.30;;;;;;6188569;23;20012;-82
2020/12/26 03:34:48;;;;;;;7.37;5.43;;;4.50;64.40;;;;;;6215289;23;19997;-82
2020/12/26 03:37:14;;;;;;;7.37;5.33;;;4.50;64.00;;;;;;6189094;23;20487;-82
2020/12/26 03:39:39;;;;;;;9.30;5.60;;;4.50;63.90;;;;;;6189398;23;20078;-82
2020/12/26 03:42:07;;;;;;;10.77;5.63;;;4.40;63.90;;;;;;6189181;23;20034;-82
2020/12/26 03:44:33;;;;;;;7.47;5.57;;;4.30;64.00;;;;;;6188526;23;20009;-81
2020/12/26 03:46:58;;;;;;;7.30;4.97;;;4.30;64.10;;;;;;6188455;23;20009;-82
2020/12/26 03:49:24;;;;;;;12.10;5.23;;;4.30;64.00;;;;;;6188950;23;20028;-82
2020/12/26 03:51:50;;;;;;;5.93;4.60;;;4.30;64.00;;;;;;6189231;23;20016;-82
2020/12/26 03:54:17;;;;;;;6.20;4.70;;;4.30;64.00;;;;;;6215506;23;20004;-82
2020/12/26 03:56:43;;;;;;;6.77;5.40;;;4.30;64.10;;;;;;6188014;23;20005;-82
2020/12/26 03:59:09;;;;;;;8.63;5.47;;;4.30;64.10;;;;;;6187459;23;20036;-82
2020/12/26 04:01:36;;;;;;;6.40;5.03;;;4.30;64.20;;;;;;6214499;23;20055;-82
2020/12/26 04:04:01;;;;;;;7.00;4.77;;;4.20;64.20;;;;;;6188347;23;20400;-82
2020/12/26 04:06:30;;;;;;;8.40;5.40;;;4.30;64.50;;;;;;6190226;23;20011;-82
2020/12/26 04:08:56;;;;;;;6.47;4.90;;;4.30;64.40;;;;;;6188229;23;20275;-82
2020/12/26 04:11:23;;;;;;;8.10;5.07;;;4.30;64.30;;;;;;6187620;23;20012;-82
2020/12/26 04:13:49;;;;;;;7.30;5.40;;;4.30;64.50;;;;;;6189127;23;20005;-82
2020/12/26 04:16:15;;;;;;;7.50;5.30;;;4.20;64.30;;;;;;6215403;23;20000;-82
2020/12/26 04:18:40;;;;;;;8.27;5.60;;;4.20;64.60;;;;;;6189252;23;20055;-82
2020/12/26 04:21:07;;;;;;;8.83;6.50;;;4.20;64.60;;;;;;6189401;23;20063;-82
2020/12/26 04:23:33;;;;;;;9.17;5.97;;;4.20;64.60;;;;;;6188790;23;20068;-82
2020/12/26 04:25:59;;;;;;;8.23;5.63;;;4.20;64.60;;;;;;6187992;23;20012;-82
2020/12/26 04:28:25;;;;;;;8.60;5.90;;;4.10;64.70;;;;;;6172947;23;20029;-83
2020/12/26 04:30:51;;;;;;;7.73;5.30;;;4.10;64.90;;;;;;6158578;23;20009;-83
2020/12/26 04:33:16;;;;;;;9.33;6.20;;;4.10;64.90;;;;;;6159682;23;20092;-83
2020/12/26 04:35:42;;;;;;;8.63;5.57;;;4.10;65.20;;;;;;6158783;23;20169;-83
2020/12/26 04:38:08;;;;;;;7.80;4.73;;;4.10;65.20;;;;;;6158178;23;20791;-83
2020/12/26 04:40:34;;;;;;;8.70;5.97;;;4.10;65.40;;;;;;6157778;23;20012;-83
2020/12/26 04:43:00;;;;;;;9.97;6.03;;;4.20;65.50;;;;;;6158574;23;20008;-83
2020/12/26 04:45:27;;;;;;;8.97;6.03;;;4.20;65.20;;;;;;6183545;23;20024;-83
2020/12/26 04:48:01;;;;;;;8.67;5.43;;;4.20;65.40;;;;;;6157881;23;20501;-83
2020/12/26 04:50:34;;;;;;;17.93;10.13;;;4.20;65.50;;;;;;6158274;23;20047;-83
2020/12/26 04:53:04;;;;;;;28.50;15.07;;;4.20;65.50;;;;;;6158164;23;20029;-83
2020/12/26 04:55:35;;;;;;;9.87;7.17;;;4.20;65.40;;;;;;6156861;23;20397;-83
2020/12/26 04:58:08;;;;;;;10.10;6.47;;;4.10;65.60;;;;;;6158219;23;20055;-83
2020/12/26 05:00:34;;;;;;;;;;;4.10;65.80;;;;;;6157152;23;20009;-83
2020/12/26 05:03:11;;;;;;;7.73;5.63;;;4.10;65.70;;;;;;6183466;23;19915;-83
2020/12/26 05:05:41;;;;;;;9.03;5.70;;;4.10;65.70;;;;;;6184978;23;20017;-83
2020/12/26 05:08:09;;;;;;;7.47;5.67;;;4.10;65.70;;;;;;6185900;23;20421;-83
2020/12/26 05:10:39;;;;;;;9.53;6.20;;;4.00;65.60;;;;;;6157002;23;20108;-83
2020/12/26 05:13:06;;;;;;;9.40;5.37;;;4.00;65.80;;;;;;6158210;23;20009;-83
2020/12/26 05:15:34;;;;;;;9.07;5.50;;;4.00;65.90;;;;;;6185159;23;20434;-83
2020/12/26 05:18:00;;;;;;;9.43;6.20;;;4.10;66.00;;;;;;6157986;23;20052;-83
2020/12/26 05:20:26;;;;;;;7.17;5.47;;;4.10;65.90;;;;;;6158132;23;20013;-83
2020/12/26 05:23:11;;;;;;;8.63;6.03;;;4.10;65.80;;;;;;6157963;23;20140;-83
2020/12/26 05:25:44;;;;;;;10.20;6.83;;;4.10;65.80;;;;;;6183441;23;20009;-83
2020/12/26 05:28:10;;;;;;;;;;;4.00;65.70;;;;;;6190367;23;20077;-83
2020/12/26 05:30:37;;;;;;;9.37;6.37;;;4.10;65.90;;;;;;6187456;23;19995;-83
2020/12/26 05:33:06;;;;;;;11.13;6.83;;;4.10;65.70;;;;;;6188186;23;20079;-83
2020/12/26 05:35:36;;;;;;;8.40;6.70;;;4.10;65.70;;;;;;6188360;23;20009;-82
2020/12/26 05:38:21;;;;;;;6.53;5.10;;;4.10;65.70;;;;;;6214702;23;20001;-82
2020/12/26 05:40:50;;;;;;;6.77;4.83;;;4.00;65.70;;;;;;6188135;23;20016;-82
2020/12/26 05:43:18;;;;;;;7.87;6.03;;;4.00;65.70;;;;;;6214797;23;20016;-82
2020/12/26 05:45:44;;;;;;;7.03;5.90;;;4.00;65.70;;;;;;6188922;23;20336;-82
2020/12/26 05:48:15;;;;;;;8.53;5.33;;;4.00;65.70;;;;;;6188432;23;20015;-82
2020/12/26 05:50:42;;;;;;;7.83;4.80;;;4.00;65.80;;;;;;6188643;23;20015;-81
2020/12/26 05:53:09;;;;;;;8.03;4.60;;;4.00;65.70;;;;;;6189135;23;20004;-82
2020/12/26 05:55:42;;;;;;;7.77;4.27;;;4.00;65.60;;;;;;6188131;23;20031;-82
2020/12/26 05:58:09;;;;;;;5.37;4.13;;;4.10;65.60;;;;;;6189519;23;20036;-82
2020/12/26 06:00:42;;;;;;;6.43;4.50;;;4.10;65.40;;;;;;6214644;23;20007;-81
2020/12/26 06:03:29;;;;;;;6.87;4.47;;;4.00;65.30;;;;;;6187749;23;20005;-81
2020/12/26 06:05:56;;;;;;;6.90;4.90;;;4.00;65.00;;;;;;6188184;23;20012;-81
2020/12/26 06:08:23;;;;;;;6.73;5.10;;;4.00;64.90;;;;;;6190267;23;20328;-81
2020/12/26 06:10:52;;;;;;;6.33;4.80;;;4.00;64.80;;;;;;6186452;23;20024;-81
2020/12/26 06:13:20;;;;;;;6.67;5.40;;;4.00;64.90;;;;;;6187369;23;20001;-81
2020/12/26 06:15:50;;;;;;;7.20;5.67;;;4.00;64.80;;;;;;6187510;23;20474;-81
2020/12/26 06:18:18;;;;;;;7.87;5.83;;;4.00;64.80;;;;;;6188913;23;20525;-81
2020/12/26 06:20:44;;;;;;;7.00;4.67;;;3.90;64.60;;;;;;6187817;23;20009;-81
2020/12/26 06:23:27;;;;;;;5.93;4.03;;;4.00;64.80;;;;;;6215190;23;20019;-81
2020/12/26 06:25:55;;;;;;;6.30;4.73;;;4.00;64.50;;;;;;6187708;23;20470;-82
2020/12/26 06:28:29;;;;;;;6.33;4.97;;;3.90;64.50;;;;;;6187838;23;20012;-83
2020/12/26 06:31:15;;;;;;;4.83;3.93;;;3.90;64.50;;;;;;6187500;23;20787;-83
2020/12/26 06:33:43;;;;;;;7.30;4.63;;;3.90;64.40;;;;;;6188287;23;20016;-83
2020/12/26 06:36:10;;;;;;;9.90;4.50;;;3.90;64.40;;;;;;6214372;23;20007;-82
2020/12/26 06:38:37;;;;;;;4.63;3.90;;;3.90;64.30;;;;;;6188973;23;20005;-83
2020/12/26 06:41:07;;;;;;;51.50;20.97;;;4.00;64.40;;;;;;6188638;23;20004;-82
2020/12/26 06:43:42;;;;;;;16.77;7.33;;;4.00;64.20;;;;;;6189948;23;20372;-82
2020/12/26 06:46:28;;;;;;;13.50;7.07;;;4.00;64.00;;;;;;6188602;23;20071;-82
2020/12/26 06:48:55;;;;;;;7.40;5.60;;;3.90;64.00;;;;;;6163689;23;20008;-82
2020/12/26 06:51:28;;;;;;;5.57;4.27;;;3.90;64.10;;;;;;6188115;23;20013;-82
2020/12/26 06:54:04;;;;;;;4.47;4.00;;;4.00;64.00;;;;;;6190519;23;20079;-82
2020/12/26 06:56:33;;;;;;;5.70;4.77;;;4.00;63.80;;;;;;6189643;23;20011;-83
2020/12/26 06:59:09;;;;;;;7.17;5.23;;;3.90;63.80;;;;;;6215540;23;19993;-82
2020/12/26 07:01:40;;;;;;;10.57;6.63;;;3.90;63.80;;;;;;6188563;23;20011;-82
2020/12/26 07:04:15;;;;;;;4.80;4.27;;;3.90;63.90;;;;;;6215567;23;20160;-82
2020/12/26 07:06:43;;;;;;;5.97;4.20;;;3.90;63.80;;;;;;6189090;23;20012;-82
2020/12/26 07:09:10;;;;;;;6.77;4.30;;;3.90;63.80;;;;;;6189015;23;20032;-82
2020/12/26 07:11:46;;;;;;;7.23;4.97;;;3.90;63.60;;;;;;6188639;23;20018;-82
2020/12/26 07:14:30;;;;;;;6.83;5.00;;;3.90;63.70;;;;;;6216154;23;20028;-82
2020/12/26 07:16:58;;;;;;;9.23;5.77;;;3.90;63.80;;;;;;6188995;23;20116;-82
2020/12/26 07:19:24;;;;;;;6.13;5.00;;;4.00;63.80;;;;;;6189321;23;20005;-82
2020/12/26 07:21:55;;;;;;;10.27;4.03;;;3.90;63.90;;;;;;6189319;23;20028;-82
2020/12/26 07:24:30;;;;;;;7.53;4.23;;;4.00;63.80;;;;;;6190241;23;20369;-82
2020/12/26 07:27:24;;;;;;;9.10;5.70;;;4.00;63.40;;;;;;6188414;23;20020;-82
2020/12/26 07:30:09;;;;;;;12.50;6.70;;;4.00;63.50;;;;;;6165644;23;20033;-82
2020/12/26 07:32:35;;;;;;;9.87;6.43;;;3.90;63.60;;;;;;6159471;23;20037;-83
2020/12/26 07:35:22;;;;;;;8.80;6.37;;;3.90;63.80;;;;;;6156489;23;20012;-82
2020/12/26 07:37:51;;;;;;;9.20;6.20;;;3.90;64.00;;;;;;6132516;23;20028;-83
2020/12/26 07:40:34;;;;;;;7.67;5.60;;;3.90;64.20;;;;;;6157416;23;20051;-83
2020/12/26 07:43:02;;;;;;;9.03;6.20;;;3.90;64.20;;;;;;6158313;23;20332;-83
2020/12/26 07:45:30;;;;;;;7.67;5.60;;;3.90;64.10;;;;;;6160737;23;20032;-83
2020/12/26 07:47:57;;;;;;;7.30;5.67;;;4.00;64.20;;;;;;6165365;23;20001;-82
2020/12/26 07:50:31;;;;;;;7.00;5.53;;;4.00;64.20;;;;;;6195320;23;20005;-82
2020/12/26 07:52:59;;;;;;;6.77;5.40;;;4.00;64.20;;;;;;6171691;23;20079;-82
2020/12/26 07:55:27;;;;;;;9.90;5.47;;;4.00;64.20;;;;;;6167564;23;20005;-83
2020/12/26 07:58:04;;;;;;;7.10;5.23;;;4.00;64.10;;;;;;6160825;23;20012;-83
2020/12/26 08:00:33;;;;;;;9.43;5.23;;;4.00;64.30;;;;;;6186165;23;20001;-83
2020/12/26 08:03:01;;;;;;;10.40;6.30;;;4.10;64.20;;;;;;6185468;23;20009;-83
2020/12/26 08:05:30;;;;;;;8.80;6.07;;;4.10;64.10;;;;;;6160080;23;20479;-83
2020/12/26 08:07:56;;;;;;;8.90;6.07;;;4.00;64.10;;;;;;6160360;23;20009;-83
2020/12/26 08:10:22;;;;;;;12.73;6.13;;;4.00;64.20;;;;;;6185800;23;20336;-83
2020/12/26 08:12:52;;;;;;;11.83;6.10;;;4.00;64.10;;;;;;6158533;23;20088;-83
2020/12/26 08:15:26;;;;;;;8.67;5.57;;;4.00;64.40;;;;;;6159736;23;20001;-83
2020/12/26 08:17:53;;;;;;;9.67;5.57;;;4.00;63.90;;;;;;6159463;23;20095;-83
2020/12/26 08:20:24;;;;;;;8.87;6.33;;;3.90;64.60;;;;;;6158895;23;20012;-83
2020/12/26 08:22:50;;;;;;;9.27;5.87;;;3.90;64.20;;;;;;6158683;23;20012;-83
2020/12/26 08:25:18;;;;;;;9.20;6.53;;;4.00;64.20;;;;;;6159744;23;20009;-83
2020/12/26 08:27:45;;;;;;;7.70;5.47;;;4.00;64.30;;;;;;6159727;23;20036;-83
2020/12/26 08:30:14;;;;;;;9.90;6.67;;;4.00;64.10;;;;;;6185480;23;20055;-83
2020/12/26 08:32:49;;;;;;;13.10;7.33;;;4.00;64.20;;;;;;6189309;23;20000;-83
2020/12/26 08:35:18;;;;;;;7.27;5.60;;;3.90;64.20;;;;;;6216450;23;20328;-83
2020/12/26 08:37:47;;;;;;;8.37;6.17;;;3.90;64.10;;;;;;6216457;23;20435;-83
2020/12/26 08:40:17;;;;;;;10.13;6.47;;;4.00;64.30;;;;;;6188714;23;20606;-83
2020/12/26 08:42:43;;;;;;;8.13;5.97;;;3.90;64.20;;;;;;6215641;23;19996;-83
2020/12/26 08:45:32;;;;;;;8.70;6.13;;;3.90;64.40;;;;;;6189632;23;20005;-83
2020/12/26 08:48:04;;;;;;;11.17;8.17;;;3.90;64.50;;;;;;6216529;23;20003;-83
2020/12/26 08:50:29;;;;;;;11.27;7.37;;;3.90;64.30;;;;;;6217108;23;20036;-83
2020/12/26 08:53:04;;;;;;;8.70;6.90;;;3.80;64.40;;;;;;6215615;23;20313;-83
2020/12/26 08:55:29;;;;;;;11.47;8.43;;;3.90;64.30;;;;;;6189850;23;20376;-83
2020/12/26 08:57:59;;;;;;;11.63;7.57;;;3.90;64.30;;;;;;6189180;23;20008;-83
2020/12/26 09:00:26;;;;;;;9.10;7.50;;;3.90;64.20;;;;;;6189525;23;20010;-83
2020/12/26 09:02:54;;;;;;;8.63;6.93;;;4.00;64.20;;;;;;6189964;23;20008;-83
2020/12/26 09:05:30;;;;;;;9.77;6.93;;;4.00;64.40;;;;;;6189000;23;20063;-83
2020/12/26 09:08:00;;;;;;;11.50;8.53;;;4.10;65.00;;;;;;6190130;23;20189;-83
2020/12/26 09:10:26;;;;;;;10.20;7.40;;;4.20;64.30;;;;;;6189636;23;20004;-83
2020/12/26 09:13:00;;;;;;;9.90;7.67;;;4.20;64.20;;;;;;6189251;23;20387;-83
2020/12/26 09:15:26;;;;;;;10.10;7.00;;;4.30;64.30;;;;;;6188982;23;20004;-83
2020/12/26 09:17:51;;;;;;;12.67;7.23;;;4.50;64.20;;;;;;6190429;23;20008;-83
2020/12/26 09:20:17;;;;;;;10.43;7.10;;;4.50;63.80;;;;;;6190389;23;20331;-83
2020/12/26 09:22:43;;;;;;;9.30;7.03;;;4.50;63.80;;;;;;6189827;23;20004;-83
2020/12/26 09:25:25;;;;;;;10.53;8.07;;;4.40;63.80;;;;;;6189890;23;20385;-83
2020/12/26 09:28:03;;;;;;;13.87;8.23;;;4.40;63.90;;;;;;6190828;23;20008;-83
2020/12/26 09:30:29;;;;;;;12.03;8.80;;;4.40;64.00;;;;;;6159452;23;20017;-83
2020/12/26 09:32:56;;;;;;;12.10;8.87;;;4.40;63.80;;;;;;6158172;23;20765;-83
2020/12/26 09:35:22;;;;;;;12.73;8.17;;;4.30;63.80;;;;;;6185994;23;20097;-83
2020/12/26 09:37:57;;;;;;;14.50;8.07;;;4.30;63.80;;;;;;6159735;23;20059;-83
2020/12/26 09:40:34;;;;;;;12.83;8.57;;;4.40;63.60;;;;;;6158783;23;20008;-83
2020/12/26 09:43:01;;;;;;;13.83;8.50;;;4.40;63.80;;;;;;6184502;23;20008;-83
2020/12/26 09:45:28;;;;;;;11.23;7.30;;;4.50;63.80;;;;;;6158632;23;20008;-83
2020/12/26 09:48:01;;;;;;;16.33;7.30;;;4.50;63.50;;;;;;6188643;23;20027;-88
2020/12/26 09:50:26;;;;;;;;;;;4.70;63.60;;;;;;6158557;23;20016;-83
2020/12/26 09:52:53;;;;;;;12.13;7.17;;;5.00;63.30;;;;;;6185651;23;19951;-83
2020/12/26 09:55:18;;;;;;;11.17;7.27;;;5.30;62.90;;;;;;6162787;23;20001;-83
2020/12/26 09:57:44;;;;;;;11.10;7.77;;;5.50;62.60;;;;;;6187165;23;20063;-83
2020/12/26 10:00:10;;;;;;;8.47;6.40;;;5.70;62.30;;;;;;6159493;23;20675;-83
2020/12/26 10:02:36;;;;;;;11.20;5.97;;;6.00;61.90;;;;;;6160105;23;20005;-83
2020/12/26 10:05:07;;;;;;;9.27;6.03;;;6.20;61.20;;;;;;6159626;23;20001;-84
2020/12/26 10:07:32;;;;;;;13.13;7.33;;;6.30;60.80;;;;;;6160503;23;20001;-83
2020/12/26 10:09:59;;;;;;;10.83;6.03;;;6.50;60.50;;;;;;6184195;23;20001;-83
2020/12/26 10:12:25;;;;;;;10.23;5.57;;;6.70;60.60;;;;;;6158207;23;20317;-83
2020/12/26 10:14:50;;;;;;;13.07;7.97;;;7.00;60.70;;;;;;6186817;23;20008;-83
2020/12/26 10:17:16;;;;;;;19.60;7.40;;;7.30;59.80;;;;;;6157870;23;20011;-83
2020/12/26 10:19:42;;;;;;;10.13;7.60;;;7.50;59.30;;;;;;6157546;23;20015;-83
2020/12/26 10:22:07;;;;;;;12.67;6.70;;;7.60;58.50;;;;;;6158154;23;20008;-83
2020/12/26 10:24:33;;;;;;;9.17;5.73;;;7.80;58.50;;;;;;6185333;23;20024;-83
2020/12/26 10:26:59;;;;;;;9.23;5.70;;;8.10;57.90;;;;;;6185049;23;20012;-82
2020/12/26 10:29:24;;;;;;;11.03;5.77;;;8.30;56.80;;;;;;6202429;23;20020;-83
2020/12/26 10:31:50;;;;;;;12.10;6.17;;;8.30;56.90;;;;;;6188857;23;20008;-83
2020/12/26 10:34:17;;;;;;;8.23;4.70;;;8.60;56.70;;;;;;6214956;23;20063;-83
2020/12/26 10:36:44;;;;;;;7.23;4.23;;;8.90;56.20;;;;;;6188374;23;20081;-83
2020/12/26 10:39:10;;;;;;;6.40;3.77;;;8.90;55.70;;;;;;6188429;23;20487;-83
2020/12/26 10:41:35;;;;;;;5.07;3.93;;;9.00;55.50;;;;;;6189039;23;20043;-83
2020/12/26 10:44:01;;;;;;;7.57;3.63;;;9.20;55.30;;;;;;6216243;23;20087;-83
2020/12/26 10:46:28;;;;;;;5.53;4.17;;;9.40;55.00;;;;;;6214656;23;19997;-83
2020/12/26 10:48:54;;;;;;;8.60;4.07;;;9.50;54.30;;;;;;6189274;23;20008;-83
2020/12/26 10:51:19;;;;;;;6.40;3.93;;;9.70;54.10;;;;;;6188035;23;20025;-83
2020/12/26 10:53:45;;;;;;;7.70;4.33;;;9.70;53.80;;;;;;6186219;23;20008;-83
2020/12/26 10:56:11;;;;;;;5.60;3.93;;;9.70;53.60;;;;;;6187239;23;20011;-84
2020/12/26 10:58:36;;;;;;;5.03;3.60;;;9.60;53.50;;;;;;6188242;23;20001;-84
2020/12/26 11:01:03;;;;;;;5.70;4.23;;;9.70;53.60;;;;;;6188790;23;20043;-83
2020/12/26 11:03:28;;;;;;;4.57;3.43;;;9.70;53.10;;;;;;6187555;23;20058;-83
2020/12/26 11:05:54;;;;;;;5.00;3.37;;;9.40;53.00;;;;;;6215333;23;20023;-84
2020/12/26 11:08:20;;;;;;;6.10;3.63;;;9.30;52.90;;;;;;6187710;23;20005;-83
2020/12/26 11:10:45;;;;;;;8.43;5.63;;;9.00;52.90;;;;;;6188456;23;20012;-83
2020/12/26 11:13:11;;;;;;;9.03;5.33;;;8.70;53.00;;;;;;6187293;23;20063;-83
2020/12/26 11:15:37;;;;;;;12.50;10.60;;;8.40;53.20;;;;;;6188020;23;20335;-83
2020/12/26 11:18:03;;;;;;;15.40;11.40;;;8.20;53.50;;;;;;6186872;23;20471;-83
2020/12/26 11:20:29;;;;;;;11.87;9.23;;;8.00;53.50;;;;;;6216894;23;20494;-84
2020/12/26 11:22:55;;;;;;;7.93;6.77;;;7.80;53.70;;;;;;6191197;23;20008;-84
2020/12/26 11:25:21;;;;;;;8.97;5.23;;;7.70;53.80;;;;;;6191248;23;20005;-84
2020/12/26 11:27:46;;;;;;;10.37;5.43;;;7.50;53.80;;;;;;6188354;23;20012;-84
2020/12/26 11:30:12;;;;;;;13.70;7.70;;;7.20;53.90;;;;;;6214287;23;20044;-84
2020/12/26 11:32:38;;;;;;;15.23;8.50;;;7.10;54.10;;;;;;6214002;23;20388;-84
2020/12/26 11:35:04;;;;;;;16.37;8.40;;;7.00;54.20;;;;;;6217915;23;20009;-84
2020/12/26 11:37:32;;;;;;;18.57;7.87;;;6.90;54.20;;;;;;6186479;23;20309;-83
2020/12/26 11:39:58;;;;;;;22.43;8.97;;;6.80;54.30;;;;;;6186264;23;20312;-83
2020/12/26 11:42:23;;;;;;;16.23;8.10;;;6.70;54.30;;;;;;6213128;23;20011;-83
2020/12/26 11:44:49;;;;;;;9.43;6.37;;;6.60;54.40;;;;;;6186933;23;20013;-83
2020/12/26 11:47:15;;;;;;;9.10;6.77;;;6.40;54.40;;;;;;6187019;23;20032;-83
2020/12/26 11:49:41;;;;;;;9.00;6.03;;;6.30;54.70;;;;;;6214193;23;20060;-83
2020/12/26 11:52:06;;;;;;;6.23;4.53;;;6.20;55.00;;;;;;6188126;23;20482;-83
2020/12/26 11:54:32;;;;;;;9.67;4.77;;;6.20;55.10;;;;;;6213368;23;20030;-83
2020/12/26 11:56:58;;;;;;;10.30;4.70;;;6.20;55.20;;;;;;6188192;23;20005;-83
2020/12/26 11:59:24;;;;;;;15.80;5.57;;;6.10;55.40;;;;;;6214934;23;20328;-83
2020/12/26 12:01:54;;;;;;;6.63;4.43;;;6.10;55.40;;;;;;6190019;23;20012;-84
2020/12/26 12:04:25;;;;;;;10.97;5.47;;;6.00;55.30;;;;;;6188723;23;20020;-84
2020/12/26 12:06:51;;;;;;;12.80;6.97;;;6.10;55.40;;;;;;6187636;23;20340;-83
2020/12/26 12:09:16;;;;;;;12.10;7.27;;;6.00;55.30;;;;;;6215049;23;20014;-83
2020/12/26 12:11:42;;;;;;;12.00;6.50;;;6.00;55.70;;;;;;6189262;23;20005;-84
2020/12/26 12:14:08;;;;;;;17.23;5.20;;;6.00;55.70;;;;;;6186300;23;20001;-84
2020/12/26 12:16:34;;;;;;;7.87;4.77;;;6.00;55.80;;;;;;6186769;23;20428;-83
2020/12/26 12:18:59;;;;;;;9.17;4.57;;;5.90;55.80;;;;;;6189277;23;20011;-83
2020/12/26 12:21:25;;;;;;;9.37;4.80;;;6.00;55.90;;;;;;6189448;23;20012;-84
2020/12/26 12:23:51;;;;;;;7.47;4.47;;;5.90;55.80;;;;;;6188129;23;20325;-83
2020/12/26 12:26:24;;;;;;;7.37;4.47;;;5.90;55.80;;;;;;6188029;23;20047;-83
2020/12/26 12:28:53;;;;;;;8.85;4.43;;;5.90;55.80;;;;;;6186932;23;20021;-83
2020/12/26 12:31:23;;;;;;;7.80;4.37;;;5.90;55.90;;;;;;6186664;23;20070;-83
2020/12/26 12:33:49;;;;;;;8.63;5.20;;;5.80;55.90;;;;;;6213751;23;20009;-83
2020/12/26 12:36:14;;;;;;;7.00;3.70;;;5.80;55.90;;;;;;6187082;23;20017;-83
2020/12/26 12:38:40;;;;;;;10.73;7.07;;;5.90;55.80;;;;;;6186827;23;20004;-83
2020/12/26 12:41:06;;;;;;;12.57;5.50;;;5.90;55.50;;;;;;6186613;23;20035;-83
2020/12/26 12:43:31;;;;;;;12.70;7.30;;;5.80;55.60;;;;;;6185994;23;20009;-83
2020/12/26 12:45:57;;;;;;;11.33;5.37;;;5.80;55.60;;;;;;6186838;23;20009;-83
2020/12/26 12:48:23;;;;;;;7.27;3.67;;;5.70;55.60;;;;;;6186935;23;20009;-83
2020/12/26 12:50:48;;;;;;;5.03;3.83;;;5.70;55.80;;;;;;6185697;23;20012;-83
2020/12/26 12:53:14;;;;;;;6.60;3.10;;;5.70;55.70;;;;;;6185642;23;19997;-83
2020/12/26 12:55:40;;;;;;;6.57;3.07;;;5.70;55.70;;;;;;6187167;23;20076;-84
2020/12/26 12:58:05;;;;;;;5.07;3.50;;;5.70;55.60;;;;;;6213724;23;20107;-83
2020/12/26 13:00:31;;;;;;;4.83;3.30;;;5.60;55.50;;;;;;6187426;23;20019;-83